sensor_id;sensor_type;location;lat;lon;timestamp;P1;durP1;ratioP1;P2;durP2;ratioP2
9767;SDS011;4923;52.520;13.494;2022-08-21T00:00:09;5.80;;;5.30;;
9767;SDS011;4923;52.520;13.494;2022-08-21T00:03:00;8.53;;;5.73;;
9767;SDS011;4923;52.520;13.494;2022-08-21T00:05:50;9.13;;;5.13;;
9767;SDS011;4923;52.520;13.494;2022-08-21T00:08:40;5.83;;;5.33;;
9767;SDS011;4923;52.520;13.494;2022-08-21T00:11:27;5.70;;;5.17;;
9767;SDS011;4923;52.520;13.494;2022-08-21T00:14:14;5.13;;;4.83;;
9767;SDS011;4923;52.520;13.494;2022-08-21T00:17:03;7.20;;;5.73;;
9767;SDS011;4923;52.520;13.494;2022-08-21T00:19:52;6.20;;;5.70;;
9767;SDS011;4923;52.520;13.494;2022-08-21T00:22:38;5.53;;;5.23;;
9767;SDS011;4923;52.520;13.494;2022-08-21T00:25:27;4.83;;;4.43;;
9767;SDS011;4923;52.520;13.494;2022-08-21T00:28:14;5.27;;;4.77;;
9767;SDS011;4923;52.520;13.494;2022-08-21T00:31:01;5.60;;;5.20;;
9767;SDS011;4923;52.520;13.494;2022-08-21T00:33:49;5.53;;;5.03;;
9767;SDS011;4923;52.520;13.494;2022-08-21T00:36:38;6.70;;;6.00;;
9767;SDS011;4923;52.520;13.494;2022-08-21T00:39:26;6.80;;;6.10;;
9767;SDS011;4923;52.520;13.494;2022-08-21T00:42:13;8.23;;;6.57;;
9767;SDS011;4923;52.520;13.494;2022-08-21T00:45:01;8.77;;;5.53;;
9767;SDS011;4923;52.520;13.494;2022-08-21T00:47:49;6.13;;;5.73;;
9767;SDS011;4923;52.520;13.494;2022-08-21T00:50:38;9.50;;;6.13;;
9767;SDS011;4923;52.520;13.494;2022-08-21T00:53:29;6.90;;;6.07;;
9767;SDS011;4923;52.520;13.494;2022-08-21T00:56:17;7.23;;;6.33;;
9767;SDS011;4923;52.520;13.494;2022-08-21T00:59:06;6.27;;;4.97;;
9767;SDS011;4923;52.520;13.494;2022-08-21T01:01:54;6.03;;;5.40;;
9767;SDS011;4923;52.520;13.494;2022-08-21T01:04:41;5.63;;;5.13;;
9767;SDS011;4923;52.520;13.494;2022-08-21T01:07:28;6.07;;;5.33;;
9767;SDS011;4923;52.520;13.494;2022-08-21T01:10:18;6.57;;;5.97;;
9767;SDS011;4923;52.520;13.494;2022-08-21T01:13:06;6.20;;;5.63;;
9767;SDS011;4923;52.520;13.494;2022-08-21T01:15:55;6.20;;;5.80;;
9767;SDS011;4923;52.520;13.494;2022-08-21T01:18:45;9.13;;;5.63;;
9767;SDS011;4923;52.520;13.494;2022-08-21T01:21:45;9.10;;;5.10;;
9767;SDS011;4923;52.520;13.494;2022-08-21T01:24:38;6.90;;;5.77;;
9767;SDS011;4923;52.520;13.494;2022-08-21T01:27:26;5.53;;;5.13;;
9767;SDS011;4923;52.520;13.494;2022-08-21T01:30:14;6.63;;;6.13;;
9767;SDS011;4923;52.520;13.494;2022-08-21T01:33:04;6.70;;;5.30;;
9767;SDS011;4923;52.520;13.494;2022-08-21T01:35:51;5.93;;;5.33;;
9767;SDS011;4923;52.520;13.494;2022-08-21T01:38:41;6.53;;;4.83;;
9767;SDS011;4923;52.520;13.494;2022-08-21T01:41:30;5.87;;;5.40;;
9767;SDS011;4923;52.520;13.494;2022-08-21T01:44:19;5.13;;;4.43;;
9767;SDS011;4923;52.520;13.494;2022-08-21T01:47:08;6.70;;;4.63;;
9767;SDS011;4923;52.520;13.494;2022-08-21T01:49:58;10.97;;;4.00;;
9767;SDS011;4923;52.520;13.494;2022-08-21T01:52:45;4.43;;;3.87;;
9767;SDS011;4923;52.520;13.494;2022-08-21T01:55:34;4.80;;;4.30;;
9767;SDS011;4923;52.520;13.494;2022-08-21T01:58:21;9.53;;;4.03;;
9767;SDS011;4923;52.520;13.494;2022-08-21T02:01:08;5.90;;;4.43;;
9767;SDS011;4923;52.520;13.494;2022-08-21T02:03:55;5.07;;;4.47;;
9767;SDS011;4923;52.520;13.494;2022-08-21T02:06:46;4.90;;;4.40;;
9767;SDS011;4923;52.520;13.494;2022-08-21T02:09:34;9.33;;;4.43;;
9767;SDS011;4923;52.520;13.494;2022-08-21T02:12:22;4.30;;;4.07;;
9767;SDS011;4923;52.520;13.494;2022-08-21T02:15:09;4.73;;;4.53;;
9767;SDS011;4923;52.520;13.494;2022-08-21T02:17:58;4.80;;;4.33;;
9767;SDS011;4923;52.520;13.494;2022-08-21T02:20:47;6.20;;;4.70;;
9767;SDS011;4923;52.520;13.494;2022-08-21T02:23:35;6.83;;;4.10;;
9767;SDS011;4923;52.520;13.494;2022-08-21T02:26:22;5.23;;;4.83;;
9767;SDS011;4923;52.520;13.494;2022-08-21T02:29:11;7.07;;;5.00;;
9767;SDS011;4923;52.520;13.494;2022-08-21T02:31:58;5.43;;;4.90;;
9767;SDS011;4923;52.520;13.494;2022-08-21T02:34:46;5.40;;;4.90;;
9767;SDS011;4923;52.520;13.494;2022-08-21T02:37:34;7.13;;;4.83;;
9767;SDS011;4923;52.520;13.494;2022-08-21T02:40:22;6.23;;;3.60;;
9767;SDS011;4923;52.520;13.494;2022-08-21T02:43:11;6.33;;;3.93;;
9767;SDS011;4923;52.520;13.494;2022-08-21T02:45:59;5.00;;;4.40;;
9767;SDS011;4923;52.520;13.494;2022-08-21T02:48:46;4.27;;;3.97;;
9767;SDS011;4923;52.520;13.494;2022-08-21T02:51:33;6.60;;;4.17;;
9767;SDS011;4923;52.520;13.494;2022-08-21T02:54:20;7.60;;;3.90;;
9767;SDS011;4923;52.520;13.494;2022-08-21T02:57:07;3.77;;;3.57;;
9767;SDS011;4923;52.520;13.494;2022-08-21T02:59:54;5.13;;;4.00;;
9767;SDS011;4923;52.520;13.494;2022-08-21T03:02:42;4.77;;;3.80;;
9767;SDS011;4923;52.520;13.494;2022-08-21T03:05:32;8.17;;;4.03;;
9767;SDS011;4923;52.520;13.494;2022-08-21T03:08:22;4.63;;;3.90;;
9767;SDS011;4923;52.520;13.494;2022-08-21T03:11:09;11.30;;;3.83;;
9767;SDS011;4923;52.520;13.494;2022-08-21T03:13:56;7.17;;;3.00;;
9767;SDS011;4923;52.520;13.494;2022-08-21T03:16:43;10.47;;;3.03;;
9767;SDS011;4923;52.520;13.494;2022-08-21T03:19:32;14.73;;;3.13;;
9767;SDS011;4923;52.520;13.494;2022-08-21T03:22:19;4.50;;;3.03;;
9767;SDS011;4923;52.520;13.494;2022-08-21T03:25:06;7.40;;;3.40;;
9767;SDS011;4923;52.520;13.494;2022-08-21T03:27:53;5.27;;;2.60;;
9767;SDS011;4923;52.520;13.494;2022-08-21T03:30:41;5.90;;;3.20;;
9767;SDS011;4923;52.520;13.494;2022-08-21T03:33:28;3.23;;;3.03;;
9767;SDS011;4923;52.520;13.494;2022-08-21T03:36:16;8.07;;;3.13;;
9767;SDS011;4923;52.520;13.494;2022-08-21T03:39:03;6.00;;;2.67;;
9767;SDS011;4923;52.520;13.494;2022-08-21T03:41:50;9.07;;;3.23;;
9767;SDS011;4923;52.520;13.494;2022-08-21T03:44:37;3.23;;;2.83;;
9767;SDS011;4923;52.520;13.494;2022-08-21T03:47:25;5.37;;;2.77;;
9767;SDS011;4923;52.520;13.494;2022-08-21T03:50:12;5.30;;;3.60;;
9767;SDS011;4923;52.520;13.494;2022-08-21T03:53:01;7.73;;;2.70;;
9767;SDS011;4923;52.520;13.494;2022-08-21T03:55:48;6.33;;;3.10;;
9767;SDS011;4923;52.520;13.494;2022-08-21T03:58:37;5.33;;;3.40;;
9767;SDS011;4923;52.520;13.494;2022-08-21T04:01:24;7.03;;;2.60;;
9767;SDS011;4923;52.520;13.494;2022-08-21T04:04:11;3.50;;;3.20;;
9767;SDS011;4923;52.520;13.494;2022-08-21T04:06:58;6.60;;;2.60;;
9767;SDS011;4923;52.520;13.494;2022-08-21T04:09:47;3.57;;;2.70;;
9767;SDS011;4923;52.520;13.494;2022-08-21T04:12:34;8.50;;;3.07;;
9767;SDS011;4923;52.520;13.494;2022-08-21T04:15:21;3.87;;;2.93;;
9767;SDS011;4923;52.520;13.494;2022-08-21T04:18:09;8.20;;;2.27;;
9767;SDS011;4923;52.520;13.494;2022-08-21T04:20:56;3.20;;;2.10;;
9767;SDS011;4923;52.520;13.494;2022-08-21T04:23:45;7.70;;;2.60;;
9767;SDS011;4923;52.520;13.494;2022-08-21T04:26:33;5.10;;;2.57;;
9767;SDS011;4923;52.520;13.494;2022-08-21T04:29:20;6.63;;;2.10;;
9767;SDS011;4923;52.520;13.494;2022-08-21T04:32:07;8.30;;;2.67;;
9767;SDS011;4923;52.520;13.494;2022-08-21T04:34:57;5.00;;;2.80;;
9767;SDS011;4923;52.520;13.494;2022-08-21T04:37:45;5.60;;;1.57;;
9767;SDS011;4923;52.520;13.494;2022-08-21T04:40:32;5.57;;;2.23;;
9767;SDS011;4923;52.520;13.494;2022-08-21T04:43:21;2.77;;;2.10;;
9767;SDS011;4923;52.520;13.494;2022-08-21T04:46:08;4.47;;;1.80;;
9767;SDS011;4923;52.520;13.494;2022-08-21T04:48:56;7.93;;;1.77;;
9767;SDS011;4923;52.520;13.494;2022-08-21T04:51:43;18.00;;;3.80;;
9767;SDS011;4923;52.520;13.494;2022-08-21T04:54:30;2.33;;;1.80;;
9767;SDS011;4923;52.520;13.494;2022-08-21T04:57:17;5.60;;;2.00;;
9767;SDS011;4923;52.520;13.494;2022-08-21T05:00:07;4.00;;;2.10;;
9767;SDS011;4923;52.520;13.494;2022-08-21T05:02:58;3.70;;;2.20;;
9767;SDS011;4923;52.520;13.494;2022-08-21T05:05:47;3.53;;;1.90;;
9767;SDS011;4923;52.520;13.494;2022-08-21T05:08:39;4.67;;;2.00;;
9767;SDS011;4923;52.520;13.494;2022-08-21T05:11:29;8.37;;;2.27;;
9767;SDS011;4923;52.520;13.494;2022-08-21T05:14:16;3.30;;;2.00;;
9767;SDS011;4923;52.520;13.494;2022-08-21T05:17:05;3.03;;;1.50;;
9767;SDS011;4923;52.520;13.494;2022-08-21T05:19:52;7.93;;;2.03;;
9767;SDS011;4923;52.520;13.494;2022-08-21T05:22:40;6.00;;;1.50;;
9767;SDS011;4923;52.520;13.494;2022-08-21T05:25:27;4.10;;;2.10;;
9767;SDS011;4923;52.520;13.494;2022-08-21T05:28:14;3.57;;;1.40;;
9767;SDS011;4923;52.520;13.494;2022-08-21T05:31:01;7.10;;;2.40;;
9767;SDS011;4923;52.520;13.494;2022-08-21T05:33:49;4.43;;;1.53;;
9767;SDS011;4923;52.520;13.494;2022-08-21T05:36:36;4.73;;;1.53;;
9767;SDS011;4923;52.520;13.494;2022-08-21T05:39:23;4.50;;;1.60;;
9767;SDS011;4923;52.520;13.494;2022-08-21T05:42:10;6.20;;;1.90;;
9767;SDS011;4923;52.520;13.494;2022-08-21T05:44:56;6.10;;;1.67;;
9767;SDS011;4923;52.520;13.494;2022-08-21T05:47:43;6.50;;;1.40;;
9767;SDS011;4923;52.520;13.494;2022-08-21T05:50:32;0.87;;;0.87;;
9767;SDS011;4923;52.520;13.494;2022-08-21T05:53:19;7.43;;;1.53;;
9767;SDS011;4923;52.520;13.494;2022-08-21T05:56:08;9.27;;;1.10;;
9767;SDS011;4923;52.520;13.494;2022-08-21T05:58:55;1.43;;;1.00;;
9767;SDS011;4923;52.520;13.494;2022-08-21T06:01:45;5.40;;;1.40;;
9767;SDS011;4923;52.520;13.494;2022-08-21T06:04:46;5.93;;;1.20;;
9767;SDS011;4923;52.520;13.494;2022-08-21T06:07:35;1.97;;;1.20;;
9767;SDS011;4923;52.520;13.494;2022-08-21T06:10:22;2.03;;;1.53;;
9767;SDS011;4923;52.520;13.494;2022-08-21T06:13:09;2.60;;;1.20;;
9767;SDS011;4923;52.520;13.494;2022-08-21T06:16:00;6.07;;;1.23;;
9767;SDS011;4923;52.520;13.494;2022-08-21T06:18:49;10.90;;;1.50;;
9767;SDS011;4923;52.520;13.494;2022-08-21T06:21:36;4.13;;;1.00;;
9767;SDS011;4923;52.520;13.494;2022-08-21T06:24:24;1.87;;;1.50;;
9767;SDS011;4923;52.520;13.494;2022-08-21T06:27:13;4.60;;;1.80;;
9767;SDS011;4923;52.520;13.494;2022-08-21T06:30:00;2.87;;;0.90;;
9767;SDS011;4923;52.520;13.494;2022-08-21T06:32:47;6.23;;;1.10;;
9767;SDS011;4923;52.520;13.494;2022-08-21T06:35:34;5.40;;;1.80;;
9767;SDS011;4923;52.520;13.494;2022-08-21T06:38:22;1.93;;;1.07;;
9767;SDS011;4923;52.520;13.494;2022-08-21T06:41:10;5.03;;;1.20;;
9767;SDS011;4923;52.520;13.494;2022-08-21T06:43:57;2.93;;;1.00;;
9767;SDS011;4923;52.520;13.494;2022-08-21T06:46:44;1.43;;;1.00;;
9767;SDS011;4923;52.520;13.494;2022-08-21T06:49:31;3.20;;;1.00;;
9767;SDS011;4923;52.520;13.494;2022-08-21T06:52:18;3.50;;;1.20;;
9767;SDS011;4923;52.520;13.494;2022-08-21T06:55:06;5.40;;;1.20;;
9767;SDS011;4923;52.520;13.494;2022-08-21T06:57:55;2.93;;;0.80;;
9767;SDS011;4923;52.520;13.494;2022-08-21T07:00:43;2.93;;;1.13;;
9767;SDS011;4923;52.520;13.494;2022-08-21T07:03:32;3.60;;;1.00;;
9767;SDS011;4923;52.520;13.494;2022-08-21T07:06:21;14.83;;;1.17;;
9767;SDS011;4923;52.520;13.494;2022-08-21T07:09:08;2.90;;;0.80;;
9767;SDS011;4923;52.520;13.494;2022-08-21T07:11:55;5.27;;;1.30;;
9767;SDS011;4923;52.520;13.494;2022-08-21T07:14:45;8.70;;;2.10;;
9767;SDS011;4923;52.520;13.494;2022-08-21T07:17:32;3.83;;;1.73;;
9767;SDS011;4923;52.520;13.494;2022-08-21T07:20:21;2.60;;;0.90;;
9767;SDS011;4923;52.520;13.494;2022-08-21T07:23:09;2.03;;;0.77;;
9767;SDS011;4923;52.520;13.494;2022-08-21T07:25:58;2.23;;;1.00;;
9767;SDS011;4923;52.520;13.494;2022-08-21T07:28:46;2.00;;;1.10;;
9767;SDS011;4923;52.520;13.494;2022-08-21T07:31:36;5.33;;;1.63;;
9767;SDS011;4923;52.520;13.494;2022-08-21T07:34:23;4.10;;;1.00;;
9767;SDS011;4923;52.520;13.494;2022-08-21T07:37:10;2.93;;;1.20;;
9767;SDS011;4923;52.520;13.494;2022-08-21T07:39:57;3.40;;;1.10;;
9767;SDS011;4923;52.520;13.494;2022-08-21T07:42:45;5.23;;;0.80;;
9767;SDS011;4923;52.520;13.494;2022-08-21T07:45:35;9.03;;;1.47;;
9767;SDS011;4923;52.520;13.494;2022-08-21T07:48:23;2.57;;;1.03;;
9767;SDS011;4923;52.520;13.494;2022-08-21T07:51:13;4.53;;;0.83;;
9767;SDS011;4923;52.520;13.494;2022-08-21T07:54:02;3.27;;;1.10;;
9767;SDS011;4923;52.520;13.494;2022-08-21T07:56:49;10.40;;;0.90;;
9767;SDS011;4923;52.520;13.494;2022-08-21T07:59:36;1.87;;;1.20;;
9767;SDS011;4923;52.520;13.494;2022-08-21T08:02:23;7.80;;;1.37;;
9767;SDS011;4923;52.520;13.494;2022-08-21T08:05:12;3.90;;;1.13;;
9767;SDS011;4923;52.520;13.494;2022-08-21T08:07:59;1.37;;;0.80;;
9767;SDS011;4923;52.520;13.494;2022-08-21T08:10:49;6.60;;;0.83;;
9767;SDS011;4923;52.520;13.494;2022-08-21T08:13:38;2.57;;;0.70;;
9767;SDS011;4923;52.520;13.494;2022-08-21T08:16:26;1.77;;;1.00;;
9767;SDS011;4923;52.520;13.494;2022-08-21T08:19:13;1.90;;;0.80;;
9767;SDS011;4923;52.520;13.494;2022-08-21T08:22:01;0.80;;;0.80;;
9767;SDS011;4923;52.520;13.494;2022-08-21T08:24:58;2.97;;;0.83;;
9767;SDS011;4923;52.520;13.494;2022-08-21T08:27:45;1.03;;;0.77;;
9767;SDS011;4923;52.520;13.494;2022-08-21T08:30:33;3.80;;;0.90;;
9767;SDS011;4923;52.520;13.494;2022-08-21T08:33:20;9.10;;;1.00;;
9767;SDS011;4923;52.520;13.494;2022-08-21T08:36:12;2.30;;;1.00;;
9767;SDS011;4923;52.520;13.494;2022-08-21T08:39:02;2.80;;;0.80;;
9767;SDS011;4923;52.520;13.494;2022-08-21T08:41:50;1.27;;;0.80;;
9767;SDS011;4923;52.520;13.494;2022-08-21T08:44:43;6.93;;;0.90;;
9767;SDS011;4923;52.520;13.494;2022-08-21T08:47:32;1.40;;;1.13;;
9767;SDS011;4923;52.520;13.494;2022-08-21T08:50:24;2.97;;;1.03;;
9767;SDS011;4923;52.520;13.494;2022-08-21T08:53:17;2.97;;;1.10;;
9767;SDS011;4923;52.520;13.494;2022-08-21T08:56:10;5.83;;;1.53;;
9767;SDS011;4923;52.520;13.494;2022-08-21T08:58:59;9.83;;;1.07;;
9767;SDS011;4923;52.520;13.494;2022-08-21T09:01:48;3.97;;;0.90;;
9767;SDS011;4923;52.520;13.494;2022-08-21T09:04:36;4.70;;;0.90;;
9767;SDS011;4923;52.520;13.494;2022-08-21T09:07:25;7.73;;;1.20;;
9767;SDS011;4923;52.520;13.494;2022-08-21T09:10:25;1.70;;;0.80;;
9767;SDS011;4923;52.520;13.494;2022-08-21T09:13:24;4.83;;;1.50;;
9767;SDS011;4923;52.520;13.494;2022-08-21T09:16:19;4.60;;;1.00;;
9767;SDS011;4923;52.520;13.494;2022-08-21T09:19:22;6.73;;;1.20;;
9767;SDS011;4923;52.520;13.494;2022-08-21T09:22:17;3.60;;;1.00;;
9767;SDS011;4923;52.520;13.494;2022-08-21T09:25:15;1.33;;;0.80;;
9767;SDS011;4923;52.520;13.494;2022-08-21T09:28:07;5.83;;;1.30;;
9767;SDS011;4923;52.520;13.494;2022-08-21T09:30:58;4.60;;;0.90;;
9767;SDS011;4923;52.520;13.494;2022-08-21T09:33:47;5.80;;;1.20;;
9767;SDS011;4923;52.520;13.494;2022-08-21T09:36:37;3.47;;;1.00;;
9767;SDS011;4923;52.520;13.494;2022-08-21T09:39:27;1.03;;;0.90;;
9767;SDS011;4923;52.520;13.494;2022-08-21T09:42:21;1.13;;;0.90;;
9767;SDS011;4923;52.520;13.494;2022-08-21T09:45:12;4.13;;;0.87;;
9767;SDS011;4923;52.520;13.494;2022-08-21T09:48:11;3.77;;;1.13;;
9767;SDS011;4923;52.520;13.494;2022-08-21T09:51:05;0.73;;;0.70;;
9767;SDS011;4923;52.520;13.494;2022-08-21T09:53:56;2.70;;;1.37;;
9767;SDS011;4923;52.520;13.494;2022-08-21T09:56:57;3.80;;;1.00;;
9767;SDS011;4923;52.520;13.494;2022-08-21T10:00:07;1.70;;;1.10;;
9767;SDS011;4923;52.520;13.494;2022-08-21T10:03:07;3.13;;;0.87;;
9767;SDS011;4923;52.520;13.494;2022-08-21T10:05:57;1.20;;;0.87;;
9767;SDS011;4923;52.520;13.494;2022-08-21T10:08:45;1.40;;;0.60;;
9767;SDS011;4923;52.520;13.494;2022-08-21T10:11:32;4.60;;;1.30;;
9767;SDS011;4923;52.520;13.494;2022-08-21T10:14:30;3.73;;;1.00;;
9767;SDS011;4923;52.520;13.494;2022-08-21T10:17:27;7.57;;;0.83;;
9767;SDS011;4923;52.520;13.494;2022-08-21T10:20:23;4.50;;;1.40;;
9767;SDS011;4923;52.520;13.494;2022-08-21T10:23:21;3.50;;;1.00;;
9767;SDS011;4923;52.520;13.494;2022-08-21T10:26:21;1.77;;;0.80;;
9767;SDS011;4923;52.520;13.494;2022-08-21T10:29:18;3.90;;;1.20;;
9767;SDS011;4923;52.520;13.494;2022-08-21T10:32:24;4.00;;;1.20;;
9767;SDS011;4923;52.520;13.494;2022-08-21T10:35:22;4.73;;;1.13;;
9767;SDS011;4923;52.520;13.494;2022-08-21T10:41:32;3.30;;;0.90;;
9767;SDS011;4923;52.520;13.494;2022-08-21T10:44:30;2.77;;;1.00;;
9767;SDS011;4923;52.520;13.494;2022-08-21T10:47:25;5.87;;;0.83;;
9767;SDS011;4923;52.520;13.494;2022-08-21T10:50:21;1.93;;;0.80;;
9767;SDS011;4923;52.520;13.494;2022-08-21T10:53:20;8.43;;;0.93;;
9767;SDS011;4923;52.520;13.494;2022-08-21T10:56:20;1.77;;;0.90;;
9767;SDS011;4923;52.520;13.494;2022-08-21T10:59:15;1.33;;;0.70;;
9767;SDS011;4923;52.520;13.494;2022-08-21T11:02:13;2.33;;;0.80;;
9767;SDS011;4923;52.520;13.494;2022-08-21T11:05:05;1.73;;;0.80;;
9767;SDS011;4923;52.520;13.494;2022-08-21T11:08:00;1.73;;;1.10;;
9767;SDS011;4923;52.520;13.494;2022-08-21T11:10:52;3.43;;;0.90;;
9767;SDS011;4923;52.520;13.494;2022-08-21T11:13:45;3.23;;;0.90;;
9767;SDS011;4923;52.520;13.494;2022-08-21T11:16:36;2.97;;;1.20;;
9767;SDS011;4923;52.520;13.494;2022-08-21T11:19:28;1.27;;;0.63;;
9767;SDS011;4923;52.520;13.494;2022-08-21T11:22:18;2.47;;;0.97;;
9767;SDS011;4923;52.520;13.494;2022-08-21T11:25:11;3.23;;;0.83;;
9767;SDS011;4923;52.520;13.494;2022-08-21T11:28:05;1.50;;;0.80;;
9767;SDS011;4923;52.520;13.494;2022-08-21T11:30:59;4.47;;;0.80;;
9767;SDS011;4923;52.520;13.494;2022-08-21T11:34:01;3.43;;;1.37;;
9767;SDS011;4923;52.520;13.494;2022-08-21T11:36:59;2.60;;;0.80;;
9767;SDS011;4923;52.520;13.494;2022-08-21T11:39:52;2.13;;;0.70;;
9767;SDS011;4923;52.520;13.494;2022-08-21T11:42:47;3.43;;;1.93;;
9767;SDS011;4923;52.520;13.494;2022-08-21T11:45:43;0.80;;;0.73;;
9767;SDS011;4923;52.520;13.494;2022-08-21T11:48:37;1.33;;;0.80;;
9767;SDS011;4923;52.520;13.494;2022-08-21T11:51:32;2.00;;;1.00;;
9767;SDS011;4923;52.520;13.494;2022-08-21T11:54:26;0.70;;;0.70;;
9767;SDS011;4923;52.520;13.494;2022-08-21T11:57:18;3.93;;;0.70;;
9767;SDS011;4923;52.520;13.494;2022-08-21T12:00:13;2.33;;;0.80;;
9767;SDS011;4923;52.520;13.494;2022-08-21T12:03:07;1.80;;;0.70;;
9767;SDS011;4923;52.520;13.494;2022-08-21T12:05:59;0.80;;;0.70;;
9767;SDS011;4923;52.520;13.494;2022-08-21T12:08:56;4.50;;;0.60;;
9767;SDS011;4923;52.520;13.494;2022-08-21T12:11:45;1.23;;;0.80;;
9767;SDS011;4923;52.520;13.494;2022-08-21T12:14:38;0.53;;;0.53;;
9767;SDS011;4923;52.520;13.494;2022-08-21T12:17:35;0.87;;;0.63;;
9767;SDS011;4923;52.520;13.494;2022-08-21T12:20:26;0.50;;;0.50;;
9767;SDS011;4923;52.520;13.494;2022-08-21T12:23:27;0.40;;;0.40;;
9767;SDS011;4923;52.520;13.494;2022-08-21T12:26:23;0.50;;;0.50;;
9767;SDS011;4923;52.520;13.494;2022-08-21T12:29:14;3.00;;;0.70;;
9767;SDS011;4923;52.520;13.494;2022-08-21T12:32:19;1.20;;;0.60;;
9767;SDS011;4923;52.520;13.494;2022-08-21T12:35:13;0.53;;;0.53;;
9767;SDS011;4923;52.520;13.494;2022-08-21T12:38:06;0.50;;;0.50;;
9767;SDS011;4923;52.520;13.494;2022-08-21T12:41:03;1.10;;;0.47;;
9767;SDS011;4923;52.520;13.494;2022-08-21T12:43:55;0.70;;;0.70;;
9767;SDS011;4923;52.520;13.494;2022-08-21T12:46:46;4.43;;;1.10;;
9767;SDS011;4923;52.520;13.494;2022-08-21T12:49:36;0.50;;;0.50;;
9767;SDS011;4923;52.520;13.494;2022-08-21T12:52:40;2.33;;;0.57;;
9767;SDS011;4923;52.520;13.494;2022-08-21T12:55:40;1.10;;;1.10;;
9767;SDS011;4923;52.520;13.494;2022-08-21T12:58:30;0.80;;;0.53;;
9767;SDS011;4923;52.520;13.494;2022-08-21T13:01:19;0.50;;;0.50;;
9767;SDS011;4923;52.520;13.494;2022-08-21T13:04:10;0.80;;;0.60;;
9767;SDS011;4923;52.520;13.494;2022-08-21T13:06:59;1.23;;;0.50;;
9767;SDS011;4923;52.520;13.494;2022-08-21T13:09:46;0.87;;;0.57;;
9767;SDS011;4923;52.520;13.494;2022-08-21T13:12:38;1.10;;;0.60;;
9767;SDS011;4923;52.520;13.494;2022-08-21T13:15:28;0.63;;;0.63;;
9767;SDS011;4923;52.520;13.494;2022-08-21T13:18:20;2.67;;;0.50;;
9767;SDS011;4923;52.520;13.494;2022-08-21T13:21:10;3.13;;;0.50;;
9767;SDS011;4923;52.520;13.494;2022-08-21T13:24:07;1.00;;;0.80;;
9767;SDS011;4923;52.520;13.494;2022-08-21T13:26:58;0.40;;;0.40;;
9767;SDS011;4923;52.520;13.494;2022-08-21T13:29:46;0.70;;;0.60;;
9767;SDS011;4923;52.520;13.494;2022-08-21T13:32:35;4.90;;;0.70;;
9767;SDS011;4923;52.520;13.494;2022-08-21T13:35:27;3.47;;;0.60;;
9767;SDS011;4923;52.520;13.494;2022-08-21T13:38:17;0.77;;;0.50;;
9767;SDS011;4923;52.520;13.494;2022-08-21T13:41:08;0.83;;;0.60;;
9767;SDS011;4923;52.520;13.494;2022-08-21T13:43:59;1.80;;;1.10;;
9767;SDS011;4923;52.520;13.494;2022-08-21T13:46:49;4.93;;;0.90;;
9767;SDS011;4923;52.520;13.494;2022-08-21T13:49:39;1.70;;;0.60;;
9767;SDS011;4923;52.520;13.494;2022-08-21T13:52:28;7.50;;;1.10;;
9767;SDS011;4923;52.520;13.494;2022-08-21T13:55:15;6.33;;;0.77;;
9767;SDS011;4923;52.520;13.494;2022-08-21T13:58:03;1.47;;;0.80;;
9767;SDS011;4923;52.520;13.494;2022-08-21T14:00:51;2.87;;;0.80;;
9767;SDS011;4923;52.520;13.494;2022-08-21T14:03:41;0.83;;;0.70;;
9767;SDS011;4923;52.520;13.494;2022-08-21T14:06:33;0.93;;;0.83;;
9767;SDS011;4923;52.520;13.494;2022-08-21T14:09:28;4.57;;;0.70;;
9767;SDS011;4923;52.520;13.494;2022-08-21T14:12:19;1.93;;;1.30;;
9767;SDS011;4923;52.520;13.494;2022-08-21T14:15:12;1.13;;;1.07;;
9767;SDS011;4923;52.520;13.494;2022-08-21T14:18:06;1.00;;;0.90;;
9767;SDS011;4923;52.520;13.494;2022-08-21T14:21:03;1.67;;;0.70;;
9767;SDS011;4923;52.520;13.494;2022-08-21T14:23:59;1.30;;;1.20;;
9767;SDS011;4923;52.520;13.494;2022-08-21T14:26:50;1.40;;;0.93;;
9767;SDS011;4923;52.520;13.494;2022-08-21T14:29:40;3.13;;;1.53;;
9767;SDS011;4923;52.520;13.494;2022-08-21T14:32:35;1.73;;;1.63;;
9767;SDS011;4923;52.520;13.494;2022-08-21T14:35:24;1.03;;;0.70;;
9767;SDS011;4923;52.520;13.494;2022-08-21T14:38:12;5.20;;;0.73;;
9767;SDS011;4923;52.520;13.494;2022-08-21T14:41:03;1.40;;;0.83;;
9767;SDS011;4923;52.520;13.494;2022-08-21T14:43:54;0.97;;;0.60;;
9767;SDS011;4923;52.520;13.494;2022-08-21T14:46:43;1.40;;;0.70;;
9767;SDS011;4923;52.520;13.494;2022-08-21T14:49:30;1.90;;;0.63;;
9767;SDS011;4923;52.520;13.494;2022-08-21T14:52:17;1.33;;;1.13;;
9767;SDS011;4923;52.520;13.494;2022-08-21T14:55:04;3.17;;;0.77;;
9767;SDS011;4923;52.520;13.494;2022-08-21T14:57:57;2.53;;;0.90;;
9767;SDS011;4923;52.520;13.494;2022-08-21T15:00:44;0.80;;;0.80;;
9767;SDS011;4923;52.520;13.494;2022-08-21T15:03:31;4.00;;;1.30;;
9767;SDS011;4923;52.520;13.494;2022-08-21T15:06:18;2.20;;;1.20;;
9767;SDS011;4923;52.520;13.494;2022-08-21T15:09:06;1.23;;;0.90;;
9767;SDS011;4923;52.520;13.494;2022-08-21T15:11:53;5.93;;;1.27;;
9767;SDS011;4923;52.520;13.494;2022-08-21T15:14:44;1.50;;;1.40;;
9767;SDS011;4923;52.520;13.494;2022-08-21T15:17:32;1.83;;;0.97;;
9767;SDS011;4923;52.520;13.494;2022-08-21T15:20:19;5.30;;;4.13;;
9767;SDS011;4923;52.520;13.494;2022-08-21T15:23:06;8.73;;;3.97;;
9767;SDS011;4923;52.520;13.494;2022-08-21T15:25:54;8.43;;;2.57;;
9767;SDS011;4923;52.520;13.494;2022-08-21T15:28:42;2.57;;;1.10;;
9767;SDS011;4923;52.520;13.494;2022-08-21T15:31:31;4.40;;;1.83;;
9767;SDS011;4923;52.520;13.494;2022-08-21T15:34:18;3.33;;;1.90;;
9767;SDS011;4923;52.520;13.494;2022-08-21T15:37:05;5.57;;;1.27;;
9767;SDS011;4923;52.520;13.494;2022-08-21T15:39:53;7.23;;;3.57;;
9767;SDS011;4923;52.520;13.494;2022-08-21T15:42:40;9.97;;;1.80;;
9767;SDS011;4923;52.520;13.494;2022-08-21T15:45:28;2.40;;;1.20;;
9767;SDS011;4923;52.520;13.494;2022-08-21T15:48:17;1.73;;;1.10;;
9767;SDS011;4923;52.520;13.494;2022-08-21T15:51:04;3.67;;;1.20;;
9767;SDS011;4923;52.520;13.494;2022-08-21T15:53:51;1.77;;;1.10;;
9767;SDS011;4923;52.520;13.494;2022-08-21T15:56:38;1.97;;;1.30;;
9767;SDS011;4923;52.520;13.494;2022-08-21T15:59:27;3.60;;;1.33;;
9767;SDS011;4923;52.520;13.494;2022-08-21T16:02:19;5.80;;;1.37;;
9767;SDS011;4923;52.520;13.494;2022-08-21T16:05:11;5.70;;;1.10;;
9767;SDS011;4923;52.520;13.494;2022-08-21T16:07:58;2.70;;;1.30;;
9767;SDS011;4923;52.520;13.494;2022-08-21T16:10:45;2.60;;;1.20;;
9767;SDS011;4923;52.520;13.494;2022-08-21T16:13:34;4.67;;;1.77;;
9767;SDS011;4923;52.520;13.494;2022-08-21T16:16:24;3.67;;;1.03;;
9767;SDS011;4923;52.520;13.494;2022-08-21T16:19:11;3.77;;;1.27;;
9767;SDS011;4923;52.520;13.494;2022-08-21T16:22:01;6.10;;;1.80;;
9767;SDS011;4923;52.520;13.494;2022-08-21T16:24:48;2.87;;;1.10;;
9767;SDS011;4923;52.520;13.494;2022-08-21T16:27:34;6.93;;;1.43;;
9767;SDS011;4923;52.520;13.494;2022-08-21T16:30:22;1.00;;;0.90;;
9767;SDS011;4923;52.520;13.494;2022-08-21T16:33:20;2.60;;;1.20;;
9767;SDS011;4923;52.520;13.494;2022-08-21T16:36:09;3.20;;;1.23;;
9767;SDS011;4923;52.520;13.494;2022-08-21T16:38:59;2.87;;;0.90;;
9767;SDS011;4923;52.520;13.494;2022-08-21T16:41:46;2.27;;;1.30;;
9767;SDS011;4923;52.520;13.494;2022-08-21T16:44:35;1.00;;;0.90;;
9767;SDS011;4923;52.520;13.494;2022-08-21T16:47:22;4.70;;;1.10;;
9767;SDS011;4923;52.520;13.494;2022-08-21T16:50:09;2.10;;;1.33;;
9767;SDS011;4923;52.520;13.494;2022-08-21T16:52:56;2.63;;;1.23;;
9767;SDS011;4923;52.520;13.494;2022-08-21T16:55:44;1.50;;;1.40;;
9767;SDS011;4923;52.520;13.494;2022-08-21T16:58:32;5.50;;;1.30;;
9767;SDS011;4923;52.520;13.494;2022-08-21T17:01:22;1.20;;;1.10;;
9767;SDS011;4923;52.520;13.494;2022-08-21T17:04:14;2.60;;;1.37;;
9767;SDS011;4923;52.520;13.494;2022-08-21T17:07:01;3.40;;;1.20;;
9767;SDS011;4923;52.520;13.494;2022-08-21T17:09:48;5.33;;;1.43;;
9767;SDS011;4923;52.520;13.494;2022-08-21T17:12:37;3.27;;;1.20;;
9767;SDS011;4923;52.520;13.494;2022-08-21T17:15:26;4.57;;;1.57;;
9767;SDS011;4923;52.520;13.494;2022-08-21T17:18:18;2.20;;;1.40;;
9767;SDS011;4923;52.520;13.494;2022-08-21T17:21:07;2.60;;;1.20;;